Time;durP1;ratioP1;P1;durP2;ratioP2;P2;SDS_P1;SDS_P2;PMS_P1;PMS_P2;Temp;Humidity;BMP_temperature;BMP_pressure;BME280_temperature;BME280_humidity;BME280_pressure;Samples;Min_cycle;Max_cycle;Signal;HPM_P1;HPM_P2
2022/10/24 00:01:21;;;;;;;147.05;44.25;;;;;;;14.02;100.00;93002.41;4857952;29;20112;-75
2022/10/24 00:03:48;;;;;;;163.35;45.47;;;;;;;13.93;100.00;93001.56;4842027;29;20038;-76
2022/10/24 00:06:14;;;;;;;175.30;45.25;;;;;;;13.89;100.00;92988.22;4844336;29;20033;-76
2022/10/24 00:08:41;;;;;;;144.05;42.30;;;;;;;13.92;100.00;93002.63;4852284;29;20050;-76
2022/10/24 00:11:14;;;;;;;177.20;45.08;;;;;;;13.90;100.00;92999.50;4841252;29;20038;-76
2022/10/24 00:13:40;;;;;;;122.97;37.83;;;;;;;13.97;100.00;92988.59;4855257;29;20045;-76
2022/10/24 00:16:07;;;;;;;112.45;37.53;;;;;;;13.99;100.00;92981.19;4850293;29;20112;-76
2022/10/24 00:18:33;;;;;;;157.63;43.50;;;;;;;14.01;100.00;92979.03;4860660;29;20512;-76
2022/10/24 00:20:59;;;;;;;162.23;42.60;;;;;;;13.99;100.00;92996.97;4853143;29;20126;-76
2022/10/24 00:23:24;;;;;;;184.95;46.78;;;;;;;13.95;100.00;92987.03;4846589;29;20044;-76
2022/10/24 00:25:50;;;;;;;169.77;49.45;;;;;;;13.90;100.00;92973.97;4825597;29;20053;-76
2022/10/24 00:28:16;;;;;;;166.60;45.17;;;;;;;13.95;100.00;92973.84;4840603;29;20306;-75
2022/10/24 00:30:41;;;;;;;173.38;45.08;;;;;;;13.85;100.00;92978.56;4860570;29;20048;-76
2022/10/24 00:33:07;;;;;;;156.80;43.22;;;;;;;13.84;100.00;92987.53;4859804;29;20098;-76
2022/10/24 00:35:32;;;;;;;178.68;49.38;;;;;;;13.82;100.00;92987.03;4843679;29;20132;-76
2022/10/24 00:37:58;;;;;;;132.77;41.08;;;;;;;13.89;100.00;92985.59;4856228;29;20456;-76
2022/10/24 00:40:24;;;;;;;138.18;41.58;;;;;;;13.97;100.00;92978.84;4827072;29;20042;-78
2022/10/24 00:42:49;;;;;;;129.45;41.70;;;;;;;14.04;100.00;92983.69;4858618;29;20053;-76
2022/10/24 00:45:40;;;;;;;142.13;45.38;;;;;;;14.00;100.00;92974.84;4843150;29;20065;-78
2022/10/24 00:48:23;;;;;;;142.77;43.17;;;;;;;14.01;100.00;92971.91;4846583;29;20113;-77
2022/10/24 00:50:52;;;;;;;141.30;44.17;;;;;;;13.98;100.00;92969.09;4847092;29;20080;-77
2022/10/24 00:53:19;;;;;;;134.43;42.35;;;;;;;13.94;100.00;92972.31;4848065;29;20049;-77
2022/10/24 00:55:48;;;;;;;170.23;48.45;;;;;;;13.83;100.00;92967.56;4849609;29;20481;-77
2022/10/24 00:58:15;;;;;;;159.55;45.67;;;;;;;13.74;100.00;92972.72;4867309;29;20037;-77
2022/10/24 01:00:41;;;;;;;150.35;44.58;;;;;;;13.79;100.00;92988.41;4863069;29;20064;-78
2022/10/24 01:03:10;;;;;;;104.63;34.08;;;;;;;13.90;100.00;92970.56;4859385;29;20527;-78
2022/10/24 01:05:49;;;;;;;131.00;40.03;;;;;;;13.86;100.00;92962.47;4859648;29;20029;-78
2022/10/24 01:08:25;;;;;;;106.65;35.40;;;;;;;13.87;100.00;92979.84;4856078;29;20042;-78
2022/10/24 01:11:15;;;;;;;104.93;34.33;;;;;;;13.83;100.00;92976.22;4848321;29;20117;-78
2022/10/24 01:14:10;;;;;;;113.18;39.60;;;;;;;13.78;100.00;92957.91;4852762;29;20056;-77
2022/10/24 01:16:41;;;;;;;135.48;39.80;;;;;;;13.74;100.00;92956.94;4867361;29;20041;-77
2022/10/24 01:19:22;;;;;;;145.80;44.13;;;;;;;13.77;100.00;92956.34;4866808;29;20116;-77
2022/10/24 01:22:22;;;;;;;160.98;49.88;;;;;;;13.71;100.00;92953.03;4866360;29;20038;-78
2022/10/24 01:24:52;;;;;;;158.10;47.10;;;;;;;13.72;100.00;92956.44;4839582;29;20045;-78
2022/10/24 01:27:27;;;;;;;171.15;48.00;;;;;;;13.66;100.00;92960.25;4863964;29;20044;-78
2022/10/24 01:29:58;;;;;;;174.40;52.85;;;;;;;13.62;100.00;92941.66;4866997;29;20173;-77
2022/10/24 01:32:30;;;;;;;156.57;45.75;;;;;;;13.70;100.00;92940.19;4849091;29;20053;-78
2022/10/24 01:35:03;;;;;;;149.55;45.92;;;;;;;13.63;100.00;92926.66;4846727;29;20091;-77
2022/10/24 01:37:32;;;;;;;158.02;48.60;;;;;;;13.61;100.00;92931.41;4849383;29;20030;-78
2022/10/24 01:40:05;;;;;;;117.28;39.40;;;;;;;13.56;100.00;92931.53;4854854;29;20066;-78
2022/10/24 01:42:34;;;;;;;138.95;42.17;;;;;;;13.63;100.00;92935.31;4865739;29;20065;-77
2022/10/24 01:45:02;;;;;;;153.35;47.78;;;;;;;13.65;100.00;92932.38;4863981;29;20061;-77
2022/10/24 01:47:37;;;;;;;106.72;36.35;;;;;;;13.70;100.00;92922.53;4852201;29;20045;-78
2022/10/24 01:50:07;;;;;;;105.18;35.67;;;;;;;13.67;100.00;92919.72;4848181;29;20033;-77
2022/10/24 01:52:37;;;;;;;136.45;44.20;;;;;;;13.61;100.00;92923.53;4879788;29;20042;-78
2022/10/24 01:55:04;;;;;;;164.18;50.90;;;;;;;13.57;100.00;92920.69;4863727;29;20041;-78
2022/10/24 01:57:32;;;;;;;163.13;52.45;;;;;;;13.53;100.00;92931.03;4853434;29;20087;-79
2022/10/24 01:59:58;;;;;;;151.80;47.03;;;;;;;13.61;100.00;92905.88;4847683;29;20042;-78
2022/10/24 02:02:38;;;;;;;129.82;39.47;;;;;;;13.51;100.00;92900.84;4863138;29;20034;-78
2022/10/24 02:05:25;;;;;;;127.78;41.33;;;;;;;13.55;100.00;92912.31;4846159;29;20065;-77
2022/10/24 02:07:54;;;;;;;146.35;49.97;;;;;;;13.49;100.00;92890.59;4858406;29;20042;-78
2022/10/24 02:10:27;;;;;;;154.98;48.60;;;;;;;13.53;100.00;92907.38;4854271;29;20042;-77
2022/10/24 02:12:58;;;;;;;107.07;36.78;;;;;;;13.49;100.00;92893.25;4848183;29;20050;-78
2022/10/24 02:15:29;;;;;;;79.18;27.77;;;;;;;13.42;100.00;92889.44;4849582;29;20037;-78
2022/10/24 02:17:56;;;;;;;70.43;25.58;;;;;;;13.38;100.00;92899.78;4854503;29;20180;-78
2022/10/24 02:20:29;;;;;;;49.58;20.30;;;;;;;13.39;100.00;92911.84;4852505;29;20037;-78
2022/10/24 02:23:09;;;;;;;52.08;18.95;;;;;;;13.39;100.00;92896.06;4852059;29;20061;-78
2022/10/24 02:25:37;;;;;;;44.78;16.75;;;;;;;13.48;100.00;92888.25;4864512;29;20124;-78
2022/10/24 02:28:11;;;;;;;99.70;31.05;;;;;;;13.43;100.00;92886.50;4858567;29;20041;-77
2022/10/24 02:30:54;;;;;;;103.85;29.27;;;;;;;13.47;100.00;92878.84;4869897;29;20040;-78
2022/10/24 02:33:21;;;;;;;481.50;32.22;;;;;;;13.46;100.00;92890.41;4869990;29;20041;-77
2022/10/24 02:35:49;;;;;;;1275.32;54.13;;;;;;;13.38;100.00;92893.75;4870280;29;20440;-78
2022/10/24 02:38:35;;;;;;;55.55;17.83;;;;;;;13.45;100.00;92884.38;4864987;29;20057;-78
2022/10/24 02:41:04;;;;;;;46.90;15.05;;;;;;;13.46;100.00;92875.41;4861935;29;20041;-78
2022/10/24 02:43:31;;;;;;;71.55;22.02;;;;;;;13.40;100.00;92871.34;4871321;29;20384;-78
2022/10/24 02:45:58;;;;;;;99.90;30.55;;;;;;;13.42;100.00;92873.66;4854273;29;20045;-79
2022/10/24 02:48:31;;;;;;;135.75;34.30;;;;;;;13.51;100.00;92864.78;4852042;29;20041;-78
2022/10/24 02:50:57;;;;;;;110.68;31.25;;;;;;;13.51;100.00;92877.19;4871342;29;20070;-78
2022/10/24 02:53:24;;;;;;;92.43;27.27;;;;;;;13.59;100.00;92883.59;4870426;29;20037;-78
2022/10/24 02:55:49;;;;;;;110.13;30.30;;;;;;;13.64;100.00;92881.63;4869082;29;20045;-78
2022/10/24 02:58:15;;;;;;;77.57;25.02;;;;;;;13.51;100.00;92870.06;4854670;29;20062;-78
2022/10/24 03:00:41;;;;;;;71.88;24.30;;;;;;;13.51;100.00;92872.69;4874809;29;20061;-78
2022/10/24 03:03:07;;;;;;;71.97;24.75;;;;;;;13.60;100.00;92866.72;4871198;29;20033;-77
2022/10/24 03:05:32;;;;;;;79.32;26.73;;;;;;;13.67;100.00;92870.50;4897231;29;20047;-77
2022/10/24 03:07:58;;;;;;;115.15;33.88;;;;;;;13.69;100.00;92862.31;4881061;29;20048;-77
2022/10/24 03:10:23;;;;;;;134.98;38.83;;;;;;;13.63;100.00;92868.78;4853580;29;20038;-77
2022/10/24 03:12:49;;;;;;;106.45;32.50;;;;;;;13.74;100.00;92859.59;4845766;29;20054;-78
2022/10/24 03:15:15;;;;;;;183.93;47.88;;;;;;;13.64;100.00;92855.31;4846847;29;20048;-77
2022/10/24 03:17:40;;;;;;;152.60;39.17;;;;;;;13.64;100.00;92841.38;4842828;29;20471;-78
2022/10/24 03:20:07;;;;;;;175.45;45.95;;;;;;;13.62;100.00;92851.41;4858665;29;20050;-77
2022/10/24 03:22:32;;;;;;;153.82;39.88;;;;;;;13.62;100.00;92872.47;4843966;29;20046;-77
2022/10/24 03:25:01;;;;;;;180.40;46.95;;;;;;;13.53;100.00;92896.84;4848598;29;20033;-77
2022/10/24 03:27:28;;;;;;;78.60;25.45;;;;;;;13.47;100.00;92871.72;4880451;29;20076;-77
2022/10/24 03:29:54;;;;;;;93.15;31.92;;;;;;;13.52;100.00;92871.59;4883224;29;20064;-77
2022/10/24 03:32:19;;;;;;;91.32;31.90;;;;;;;13.54;100.00;92863.44;4877049;29;20496;-78
2022/10/24 03:34:45;;;;;;;97.18;28.40;;;;;;;13.61;100.00;92869.06;4877492;29;20049;-78
2022/10/24 03:37:10;;;;;;;86.35;27.80;;;;;;;13.69;100.00;92862.31;4855775;29;20041;-78
2022/10/24 03:39:36;;;;;;;136.50;37.13;;;;;;;13.68;100.00;92848.38;4846521;29;20048;-77
2022/10/24 03:42:02;;;;;;;158.07;46.05;;;;;;;13.67;100.00;92862.63;4869135;29;20045;-77
2022/10/24 03:44:27;;;;;;;190.02;51.88;;;;;;;13.66;100.00;92858.41;4861825;29;20132;-77
2022/10/24 03:46:53;;;;;;;170.43;48.45;;;;;;;13.66;100.00;92878.69;4861293;29;20073;-77
2022/10/24 03:49:19;;;;;;;192.65;47.67;;;;;;;13.62;100.00;92872.47;4861549;29;20037;-77
2022/10/24 03:51:45;;;;;;;179.05;50.38;;;;;;;13.60;100.00;92870.16;4827254;29;20040;-77
2022/10/24 03:54:13;;;;;;;1448.10;77.38;;;;;;;13.58;100.00;92866.22;4861561;29;20041;-77
2022/10/24 03:56:41;;;;;;;428.48;54.10;;;;;;;13.59;100.00;92879.09;4876612;29;20046;-77
2022/10/24 03:59:06;;;;;;;159.13;47.85;;;;;;;13.57;100.00;92864.69;4862082;29;20037;-77
2022/10/24 04:01:32;;;;;;;116.28;38.75;;;;;;;13.57;100.00;92875.22;4864911;29;20084;-77
2022/10/24 04:03:57;;;;;;;275.13;56.47;;;;;;;13.49;100.00;92876.69;4844694;29;20134;-77
2022/10/24 04:06:23;;;;;;;311.88;48.42;;;;;;;13.49;100.00;92880.09;4848246;29;20170;-77
2022/10/24 04:08:49;;;;;;;276.75;52.35;;;;;;;13.49;100.00;92880.09;4860265;29;20048;-77
2022/10/24 04:11:14;;;;;;;186.70;50.30;;;;;;;13.56;100.00;92881.56;4849318;29;20041;-78
2022/10/24 04:13:40;;;;;;;206.95;55.30;;;;;;;13.51;100.00;92877.94;4860882;29;20033;-78
2022/10/24 04:16:06;;;;;;;203.60;52.97;;;;;;;13.54;100.00;92884.47;4861757;29;20109;-77
2022/10/24 04:18:32;;;;;;;531.38;57.78;;;;;;;13.59;100.00;92883.59;4861095;29;20492;-77
2022/10/24 04:20:57;;;;;;;502.67;47.10;;;;;;;13.50;100.00;92886.91;4859324;29;20044;-78
2022/10/24 04:23:23;;;;;;;494.05;57.08;;;;;;;13.50;100.00;92886.91;4845275;29;20039;-78
2022/10/24 04:25:49;;;;;;;198.25;50.20;;;;;;;13.47;100.00;92887.50;4861951;29;20102;-77
2022/10/24 04:28:14;;;;;;;116.57;37.20;;;;;;;13.59;100.00;92867.81;4860854;29;20041;-77
2022/10/24 04:30:40;;;;;;;177.32;52.00;;;;;;;13.53;100.00;92880.25;4858031;29;20038;-77
2022/10/24 04:33:06;;;;;;;160.35;50.15;;;;;;;13.60;100.00;92877.22;4859034;29;20033;-77
2022/10/24 04:35:31;;;;;;;160.10;48.17;;;;;;;13.58;100.00;92879.38;4859261;29;20120;-77
2022/10/24 04:37:57;;;;;;;175.20;53.53;;;;;;;13.56;100.00;92874.44;4856946;29;20042;-77
2022/10/24 04:40:22;;;;;;;193.23;50.25;;;;;;;13.65;100.00;92874.53;4825991;29;20129;-77
2022/10/24 04:42:48;;;;;;;144.73;44.33;;;;;;;13.65;100.00;92867.41;4850856;29;20092;-77
2022/10/24 04:45:14;;;;;;;101.28;34.35;;;;;;;13.67;100.00;92875.78;4835728;29;20140;-79
2022/10/24 04:47:40;;;;;;;116.63;36.92;;;;;;;13.66;100.00;92858.41;4871683;29;20049;-77
2022/10/24 04:50:06;;;;;;;146.80;44.78;;;;;;;13.61;100.00;92852.50;4861380;29;20041;-77
2022/10/24 04:52:32;;;;;;;145.20;47.55;;;;;;;13.60;100.00;92857.00;4865154;29;20049;-78
2022/10/24 04:54:57;;;;;;;159.32;48.30;;;;;;;13.57;100.00;92852.31;4864355;29;20053;-77
2022/10/24 04:57:23;;;;;;;175.85;52.63;;;;;;;13.58;100.00;92856.50;4860558;29;20042;-81
2022/10/24 04:59:49;;;;;;;203.00;61.85;;;;;;;13.53;100.00;92844.25;4860900;29;20095;-77
2022/10/24 05:02:14;;;;;;;158.13;47.63;;;;;;;13.54;100.00;92851.03;4860571;29;20515;-77
2022/10/24 05:04:40;;;;;;;125.88;44.45;;;;;;;13.65;100.00;92858.75;4861811;29;20037;-78
2022/10/24 05:07:06;;;;;;;173.85;49.22;;;;;;;13.65;100.00;92851.63;4857022;29;20044;-77
2022/10/24 05:09:31;;;;;;;162.40;52.60;;;;;;;13.61;100.00;92849.88;4832872;29;20076;-77
2022/10/24 05:11:57;;;;;;;177.43;54.20;;;;;;;13.59;100.00;92839.63;4843484;29;20261;-77
2022/10/24 05:14:23;;;;;;;182.20;54.92;;;;;;;13.60;100.00;92843.03;4843058;29;20042;-77
2022/10/24 05:16:48;;;;;;;166.82;53.88;;;;;;;13.64;100.00;92850.03;4857075;29;20074;-79
2022/10/24 05:19:18;;;;;;;166.95;49.72;;;;;;;13.59;100.00;92841.50;4862685;29;20041;-78
2022/10/24 05:21:44;;;;;;;178.57;52.42;;;;;;;13.56;100.00;92842.88;4879389;29;20034;-78
2022/10/24 05:24:09;;;;;;;164.73;48.08;;;;;;;13.67;100.00;92838.19;4863877;29;20442;-78
2022/10/24 05:26:35;;;;;;;175.45;51.90;;;;;;;13.64;100.00;92844.00;4863828;29;20509;-77
2022/10/24 05:29:00;;;;;;;157.23;48.10;;;;;;;13.60;100.00;92835.16;4864532;29;20041;-77
2022/10/24 05:31:26;;;;;;;157.60;50.42;;;;;;;13.60;100.00;92837.78;4864613;29;20029;-78
2022/10/24 05:33:52;;;;;;;132.77;42.47;;;;;;;13.66;100.00;92837.38;4863602;29;20643;-78
2022/10/24 05:36:17;;;;;;;146.48;49.30;;;;;;;13.67;100.00;92843.44;4862493;29;20496;-78
2022/10/24 05:38:43;;;;;;;154.80;45.88;;;;;;;13.79;100.00;92829.75;4864978;29;20030;-78
2022/10/24 05:41:08;;;;;;;153.18;47.65;;;;;;;13.73;100.00;92832.50;4848006;29;20069;-78
2022/10/24 05:43:34;;;;;;;149.38;48.20;;;;;;;13.69;100.00;92825.47;4833391;29;20045;-78
2022/10/24 05:46:11;;;;;;;148.75;48.35;;;;;;;13.65;100.00;92835.84;4866777;29;20057;-78
2022/10/24 05:48:36;;;;;;;156.85;49.90;;;;;;;13.68;100.00;92835.22;4848704;29;20045;-78
2022/10/24 05:51:02;;;;;;;137.60;44.58;;;;;;;13.69;100.00;92830.75;4864041;29;20070;-78
2022/10/24 05:53:28;;;;;;;150.32;44.17;;;;;;;13.73;100.00;92821.19;4847820;29;20056;-78
2022/10/24 05:55:53;;;;;;;153.40;44.97;;;;;;;13.77;100.00;92819.53;4863338;29;20124;-78
2022/10/24 05:58:21;;;;;;;143.38;44.13;;;;;;;13.68;100.00;92831.84;4847771;29;20045;-77
2022/10/24 06:00:48;;;;;;;136.98;45.58;;;;;;;13.66;100.00;92826.84;4861813;29;20073;-77
2022/10/24 06:03:13;;;;;;;134.57;40.58;;;;;;;13.81;100.00;92825.75;4877531;29;20393;-77
2022/10/24 06:05:39;;;;;;;137.23;42.97;;;;;;;13.75;100.00;92808.50;4879040;29;20037;-78
2022/10/24 06:08:04;;;;;;;131.05;43.20;;;;;;;13.74;100.00;92817.50;4863992;29;20033;-78
2022/10/24 06:10:30;;;;;;;103.68;34.65;;;;;;;13.80;100.00;92820.78;4861498;29;20081;-77
2022/10/24 06:12:56;;;;;;;124.72;43.30;;;;;;;13.65;100.00;92819.28;4865305;29;20042;-78
2022/10/24 06:15:21;;;;;;;119.43;41.13;;;;;;;13.70;100.00;92813.91;4863290;29;20053;-78
2022/10/24 06:17:47;;;;;;;94.43;32.88;;;;;;;13.78;100.00;92813.19;4863780;29;20044;-78
2022/10/24 06:20:13;;;;;;;107.38;36.88;;;;;;;13.80;100.00;92805.75;4855596;29;20029;-77
2022/10/24 06:22:38;;;;;;;102.47;35.67;;;;;;;13.77;100.00;92801.09;4859477;29;20068;-77
2022/10/24 06:25:05;;;;;;;104.80;37.92;;;;;;;13.71;100.00;92810.19;4849350;29;20050;-77
2022/10/24 06:27:30;;;;;;;111.22;36.92;;;;;;;13.68;100.00;92829.97;4853050;29;20046;-78
2022/10/24 06:29:56;;;;;;;111.07;34.47;;;;;;;13.69;100.00;92809.69;4847465;29;20061;-78
2022/10/24 06:32:22;;;;;;;82.40;28.77;;;;;;;13.67;100.00;92820.53;4847788;29;20057;-78
2022/10/24 06:34:47;;;;;;;91.35;30.50;;;;;;;13.73;100.00;92815.94;4855232;29;20124;-78
2022/10/24 06:37:15;;;;;;;119.30;40.33;;;;;;;13.67;100.00;92827.66;4867125;29;20101;-78
2022/10/24 06:39:41;;;;;;;96.40;35.13;;;;;;;13.73;100.00;92821.19;4868139;29;20057;-79
2022/10/24 06:42:07;;;;;;;112.15;37.08;;;;;;;13.69;100.00;92825.47;4849697;29;20046;-79
2022/10/24 06:44:35;;;;;;;123.35;41.55;;;;;;;13.69;100.00;92846.53;4862358;29;20033;-79
2022/10/24 06:47:01;;;;;;;149.23;44.60;;;;;;;13.68;100.00;92834.47;4846864;29;20046;-79
2022/10/24 06:49:26;;;;;;;146.13;47.70;;;;;;;13.62;100.00;92835.63;4846276;29;20488;-79
2022/10/24 06:51:52;;;;;;;130.50;45.67;;;;;;;13.59;100.00;92836.25;4849042;29;20038;-79
2022/10/24 06:54:18;;;;;;;145.18;48.20;;;;;;;13.61;100.00;92842.75;4847083;29;20046;-79
2022/10/24 06:56:43;;;;;;;139.88;44.85;;;;;;;13.58;100.00;92845.19;4846884;29;20049;-79
2022/10/24 06:59:10;;;;;;;90.75;33.85;;;;;;;13.67;100.00;92833.69;4848644;29;20049;-78
2022/10/24 07:01:36;;;;;;;88.43;35.15;;;;;;;13.66;100.00;92847.13;4848867;29;20041;-78
2022/10/24 07:04:02;;;;;;;71.63;26.85;;;;;;;13.75;100.00;92840.09;4849414;29;20042;-79
2022/10/24 07:06:28;;;;;;;107.97;35.38;;;;;;;13.67;100.00;92848.69;4850173;29;20313;-78
2022/10/24 07:08:56;;;;;;;104.50;35.95;;;;;;;13.67;100.00;92843.44;4850342;29;20128;-78
2022/10/24 07:11:22;;;;;;;88.68;29.42;;;;;;;13.65;100.00;92848.22;4850835;29;20046;-78
2022/10/24 07:13:48;;;;;;;76.88;26.02;;;;;;;13.66;100.00;92847.13;4868230;29;20348;-79
2022/10/24 07:16:14;;;;;;;90.05;29.77;;;;;;;13.70;100.00;92842.84;4868049;29;20144;-78
2022/10/24 07:18:40;;;;;;;93.55;32.15;;;;;;;13.62;100.00;92836.44;4883852;29;20068;-78
2022/10/24 07:21:09;;;;;;;74.20;26.30;;;;;;;13.59;100.00;92837.00;4869223;29;20027;-79
2022/10/24 07:23:35;;;;;;;81.20;32.80;;;;;;;13.60;100.00;92850.94;4853972;29;20474;-78
2022/10/24 07:26:06;;;;;;;100.47;32.80;;;;;;;13.65;100.00;92840.31;4865361;29;20030;-78
2022/10/24 07:28:33;;;;;;;104.10;37.20;;;;;;;13.64;100.00;92844.00;4854367;29;20045;-76
2022/10/24 07:30:58;;;;;;;109.13;38.92;;;;;;;13.65;100.00;92841.09;4842250;29;20047;-77
2022/10/24 07:33:24;;;;;;;116.30;36.67;;;;;;;13.73;100.00;92844.88;4842100;29;20042;-77
2022/10/24 07:35:50;;;;;;;67.47;27.27;;;;;;;13.66;100.00;92831.34;4849342;29;20054;-76
2022/10/24 07:38:16;;;;;;;84.63;29.10;;;;;;;13.71;100.00;92839.13;4856727;29;20032;-76
2022/10/24 07:40:42;;;;;;;70.10;25.90;;;;;;;13.60;100.00;92837.78;4854319;29;20040;-78
2022/10/24 07:43:08;;;;;;;72.45;26.40;;;;;;;13.57;100.00;92843.66;4859958;29;20038;-78
2022/10/24 07:45:33;;;;;;;66.47;27.38;;;;;;;13.61;100.00;92849.88;4850060;29;20026;-78
2022/10/24 07:47:59;;;;;;;74.85;28.10;;;;;;;13.59;100.00;92867.81;4865623;29;20045;-78
2022/10/24 07:50:26;;;;;;;74.53;27.20;;;;;;;13.61;100.00;92863.03;4866620;29;20096;-78
2022/10/24 07:52:51;;;;;;;85.43;31.48;;;;;;;13.61;100.00;92844.63;4865198;29;20053;-79
2022/10/24 07:55:17;;;;;;;101.43;31.67;;;;;;;13.62;100.00;92867.19;4849871;29;20034;-78
2022/10/24 07:57:42;;;;;;;86.40;32.58;;;;;;;13.56;100.00;92861.28;4851607;29;20053;-79
2022/10/24 08:00:09;;;;;;;75.40;27.50;;;;;;;13.56;100.00;92868.41;4849436;29;20038;-78
2022/10/24 08:02:40;;;;;;;;;;;;;;;13.52;100.00;92876.88;4850585;29;20046;-78
2022/10/24 08:05:06;;;;;;;74.82;26.45;;;;;;;13.53;100.00;92869.75;4860289;29;19928;-78
2022/10/24 08:07:35;;;;;;;100.78;31.10;;;;;;;13.51;100.00;92871.91;4862900;29;20033;-78
2022/10/24 08:10:01;;;;;;;113.65;36.92;;;;;;;13.49;100.00;92884.56;4849550;29;20065;-78
2022/10/24 08:12:26;;;;;;;70.82;25.17;;;;;;;13.54;100.00;92887.88;4852036;29;20110;-79
2022/10/24 08:14:54;;;;;;;87.13;32.42;;;;;;;13.51;100.00;92903.47;4858942;29;20068;-78
2022/10/24 08:17:22;;;;;;;111.65;39.80;;;;;;;13.50;100.00;92884.25;4853573;29;20051;-78
2022/10/24 08:19:48;;;;;;;100.45;37.47;;;;;;;13.48;100.00;92883.00;4881157;29;20073;-78
2022/10/24 08:22:15;;;;;;;112.65;39.42;;;;;;;13.39;100.00;92880.28;4868889;29;20045;-79
2022/10/24 08:24:44;;;;;;;99.85;35.22;;;;;;;13.42;100.00;92887.59;4848039;29;20041;-78
2022/10/24 08:27:10;;;;;;;131.30;38.70;;;;;;;13.45;100.00;92894.91;4858647;29;20533;-78
2022/10/24 08:29:35;;;;;;;80.15;31.38;;;;;;;13.52;100.00;92892.63;4863589;29;20049;-78
2022/10/24 08:32:01;;;;;;;145.18;40.72;;;;;;;13.50;100.00;92886.91;4867039;29;20037;-78
2022/10/24 08:34:27;;;;;;;115.10;36.85;;;;;;;13.56;100.00;92884.94;4851296;29;20033;-79
2022/10/24 08:36:53;;;;;;;79.93;29.73;;;;;;;13.59;100.00;92879.09;4851381;29;20520;-78
2022/10/24 08:39:19;;;;;;;110.97;37.50;;;;;;;13.61;100.00;92868.28;4846243;29;20038;-79
2022/10/24 08:41:52;;;;;;;129.25;40.30;;;;;;;13.63;100.00;92855.63;4865799;29;20034;-78
2022/10/24 08:44:20;;;;;;;103.63;37.10;;;;;;;13.68;100.00;92850.25;4864692;29;20037;-79
2022/10/24 08:46:53;;;;;;;85.63;30.75;;;;;;;13.62;100.00;92843.53;4863942;29;20046;-78
2022/10/24 08:49:39;;;;;;;105.60;37.78;;;;;;;13.59;100.00;92847.53;4850126;29;20044;-78
2022/10/24 08:52:30;;;;;;;113.55;36.72;;;;;;;13.62;100.00;92846.16;4849884;29;20124;-78
2022/10/24 08:54:59;;;;;;;92.68;34.10;;;;;;;13.67;100.00;92832.91;4854114;29;20132;-78
2022/10/24 08:57:31;;;;;;;111.13;35.92;;;;;;;13.58;100.00;92834.66;4868141;29;20056;-80
2022/10/24 09:00:17;;;;;;;;;;;;;;;13.59;100.00;92836.25;4888032;29;20065;-79
2022/10/24 09:02:48;;;;;;;91.82;28.15;;;;;;;13.58;100.00;92834.66;4845509;29;20274;-78
2022/10/24 09:05:21;;;;;;;116.43;36.50;;;;;;;13.62;100.00;92820.66;4866319;29;20034;-78
2022/10/24 09:07:53;;;;;;;99.90;34.38;;;;;;;13.59;100.00;92821.22;4862988;29;20030;-78
2022/10/24 09:10:27;;;;;;;63.28;24.38;;;;;;;13.58;100.00;92826.78;4848325;29;20078;-78
2022/10/24 09:12:52;;;;;;;71.22;22.10;;;;;;;13.57;100.00;92827.84;4864158;29;20037;-78
2022/10/24 09:15:29;;;;;;;110.05;35.30;;;;;;;13.63;100.00;92822.19;4865975;29;20492;-78
2022/10/24 09:17:56;;;;;;;80.28;28.77;;;;;;;13.69;100.00;92830.75;4867591;29;20033;-78
2022/10/24 09:20:28;;;;;;;84.47;29.50;;;;;;;13.65;100.00;92825.31;4857896;29;20042;-78
2022/10/24 09:23:00;;;;;;;107.93;35.13;;;;;;;13.69;100.00;92828.09;4849020;29;20218;-78
2022/10/24 09:25:33;;;;;;;121.63;39.78;;;;;;;13.56;100.00;92815.78;4848160;29;20404;-78
2022/10/24 09:28:02;;;;;;;100.90;34.63;;;;;;;13.66;100.00;92803.19;4862034;29;20551;-78
2022/10/24 09:30:28;;;;;;;105.22;36.47;;;;;;;13.60;100.00;92822.00;4847469;29;20097;-78
2022/10/24 09:32:56;;;;;;;81.57;30.85;;;;;;;13.70;100.00;92832.31;4848432;29;20377;-78
2022/10/24 09:35:25;;;;;;;106.30;36.97;;;;;;;13.66;100.00;92841.88;4849526;29;20458;-77
2022/10/24 09:37:56;;;;;;;85.38;32.78;;;;;;;13.51;100.00;92825.34;4859129;29;20112;-78
2022/10/24 09:40:21;;;;;;;96.15;30.38;;;;;;;13.49;100.00;92824.09;4868402;29;20052;-78
2022/10/24 09:42:49;;;;;;;79.18;27.73;;;;;;;13.63;100.00;92831.94;4866833;29;20113;-78
2022/10/24 09:45:18;;;;;;;94.43;31.23;;;;;;;13.63;100.00;92821.44;4866687;29;20113;-78
2022/10/24 09:47:43;;;;;;;85.15;31.55;;;;;;;13.69;100.00;92822.84;4861953;29;20054;-78
2022/10/24 09:50:21;;;;;;;88.32;31.15;;;;;;;13.72;100.00;92830.94;4866159;29;20042;-78
2022/10/24 09:52:52;;;;;;;92.22;28.60;;;;;;;13.78;100.00;92821.09;4838815;29;20037;-79
2022/10/24 09:55:23;;;;;;;100.40;32.65;;;;;;;13.74;100.00;92820.91;4851083;29;20076;-79
2022/10/24 09:57:52;;;;;;;81.95;25.90;;;;;;;13.80;100.00;92815.53;4867285;29;20401;-78
2022/10/24 10:00:27;;;;;;;89.38;33.63;;;;;;;13.71;100.00;92818.88;4870326;29;20552;-78
2022/10/24 10:03:00;;;;;;;70.63;27.10;;;;;;;13.76;100.00;92820.63;4856887;29;20029;-78
2022/10/24 10:05:29;;;;;;;79.07;30.40;;;;;;;13.79;100.00;92821.88;4848900;29;20049;-78
2022/10/24 10:07:55;;;;;;;90.65;34.22;;;;;;;13.79;100.00;92830.53;4867836;29;20050;-78
2022/10/24 10:10:25;;;;;;;93.60;31.30;;;;;;;13.69;100.00;92825.47;4869069;29;20089;-78
2022/10/24 10:13:14;;;;;;;88.90;29.38;;;;;;;13.70;100.00;92842.84;4868332;29;20053;-78
2022/10/24 10:15:59;;;;;;;82.10;29.55;;;;;;;13.67;100.00;92838.19;4857667;29;20038;-78
2022/10/24 10:18:32;;;;;;;77.28;30.80;;;;;;;13.69;100.00;92836.00;4850554;29;20428;-78
2022/10/24 10:21:03;;;;;;;77.30;28.88;;;;;;;13.71;100.00;92854.91;4863955;29;20106;-78
2022/10/24 10:23:32;;;;;;;85.95;31.33;;;;;;;13.76;100.00;92852.19;4882209;29;20037;-78
2022/10/24 10:26:03;;;;;;;94.55;36.00;;;;;;;13.67;100.00;92853.97;4868672;29;20369;-78
2022/10/24 10:28:29;;;;;;;96.63;30.73;;;;;;;13.64;100.00;92844.00;4866777;29;20522;-77
2022/10/24 10:30:59;;;;;;;91.22;33.58;;;;;;;13.53;100.00;92838.97;4867192;29;20049;-77
2022/10/24 10:33:49;;;;;;;93.88;32.08;;;;;;;13.51;100.00;92843.75;4866374;29;20105;-78
2022/10/24 10:36:21;;;;;;;83.97;32.13;;;;;;;13.57;100.00;92857.56;4861684;29;20093;-78
2022/10/24 10:39:06;;;;;;;85.38;29.63;;;;;;;13.61;100.00;92855.13;4865597;29;20376;-78
2022/10/24 10:42:13;;;;;;;93.28;33.60;;;;;;;13.53;100.00;92856.59;4868405;29;20432;-78
2022/10/24 10:45:08;;;;;;;89.88;27.73;;;;;;;13.67;100.00;92853.97;4862313;29;20508;-77
2022/10/24 10:48:05;;;;;;;93.35;28.15;;;;;;;13.67;100.00;92844.22;4869157;29;20484;-78
2022/10/24 10:50:47;;;;;;;83.90;28.58;;;;;;;13.62;100.00;92840.91;4867573;29;20146;-78
2022/10/24 10:53:36;;;;;;;114.75;38.90;;;;;;;13.62;100.00;92835.63;4852888;29;20042;-77
2022/10/24 10:56:09;;;;;;;123.05;41.75;;;;;;;13.64;100.00;92828.22;4855465;29;20034;-78
2022/10/24 10:59:08;;;;;;;112.63;39.63;;;;;;;13.60;100.00;92837.78;4864503;29;20042;-78
2022/10/24 11:02:29;;;;;;;142.82;38.53;;;;;;;13.68;100.00;92835.22;4849063;29;20245;-77
2022/10/24 11:05:01;;;;;;;130.02;43.72;;;;;;;13.56;100.00;92829.72;4837038;29;20078;-77
2022/10/24 11:07:34;;;;;;;121.28;39.55;;;;;;;13.62;100.00;92835.63;4847646;29;20037;-77
2022/10/24 11:10:02;;;;;;;;;;;;;;;13.58;100.00;92824.16;4849146;29;20102;-77
2022/10/24 11:12:33;;;;;;;141.30;45.58;;;;;;;13.56;100.00;92834.22;4850931;29;19914;-77
2022/10/24 11:15:07;;;;;;;247.60;48.08;;;;;;;13.44;100.00;92829.44;4866186;29;20037;-77